Ransom, IL (60470)

6:06 AM CST on March 04, 2015 (GMT -0600)
Eplin/Connell Farm 2 miles NW of | Change Station
CLOSE
Current Station
Personal Weather Station
Location: Streator, IL
Elevation: 626 ft
Nearby Weather Stations

Elev 626 ft 41.17 °N, 88.85 °W | Updated 51 seconds ago

Clear
Clear
12.8 °F
Feels Like -1 °F
N
11.0
Wind Variable Wind from WNW
Gusts 15.0 mph

Today
High -- | Low -- °F
--% Chance of Precip.
Yesterday
High -- | Low -- °F
Precip. -- in
6:24 AM 5:48 PM
Waxing Gibbous, 99% visible
Pressure 30.07 in
Visibility 10.0 miles
Clouds Clear
Windchill -1 °F
Dew Point 8 °F
Humidity 81%
Rainfall 0.00 in
Snow Depth Not available.
UV 0 out of 12
Pollen .50 out of 12
Air Quality Not available.
Flu Activity Not available.
METAR KPNT 041155Z AUTO 29013G18KT 10SM CLR M09/M12 A3007 RMK AO2 70010 T10931120 10001 21093

More Conditions Fewer Conditions

Pressure 30.07 in
Visibility 10.0 miles
Clouds Clear
Windchill -1 °F
Dew Point 8 °F
Humidity 81%
Rainfall 0.00 in
Snow Depth Not available.
UV 0 out of 12
Pollen .50 out of 12
Air Quality Not available.
Flu Activity Not available.
METAR KPNT 041155Z AUTO 29013G18KT 10SM CLR M09/M12 A3007 RMK AO2 70010 T10931120 10001 21093

More Conditions Fewer Conditions

10-Day Weather Forecast

Almanac

Astronomy

Mar. 04, 2015 Rise Set
Actual Time
Civil Twilight
Nautical Twilight
Astronomical Twilight
Moon
Length of Visible Light
Length of Day
Tomorrow will be .
, % of the Moon is Illuminated

Today's Extremes

State Highs State Lows

Community

WunderPhotos

Upload Photos

1,802,436 photos uploaded!

WunderBlogs® & News

Nearby

Air Quality

  Air Quality AQ Index Pollutant
Not available.

Snow Depth

Station Depth Elevation

Earthquake Activity

City Distance Mag. Time & Date
Minimum magnitude displayed is 2.5.

Coastal Water Temperatures

Place Temperature

Nearby Weather Stations